Shoshone, California Weather observations

Data are for observation ending at time listed.
 Day   Time    Ave.   Ave.  Ave.  Vector   Max.   Stn.    Total    Solar   Ave.  
  of    of     Air    Rel.  Wind   Wind    Wind   Baro.  Precip.   Rad.    Soil  
Year   Day     Temp.  Hum.  Speed  Dir.    Gust   Pres.                    Temp. 
2016   (PST)    F      %     mph   deg.    mph     mb.     in.     W/m2     F   
------------------------------------------------------------------------------
 176    6:00   74.7    16    0.7    75      2.7    963     0.00     103    99999.0
 176    7:00   82.4    14    0.7    66      2.9    964     0.00     295    99999.0
 176    8:00   89.2    11    1.5    61      4.2    964     0.00     504    99999.0
 176    9:00   93.1    10    2.3   158      8.8    964     0.00     701    99999.0
 176   10:00   95.2     9    4.1   162     10.1    963     0.00     857    99999.0
 176   11:00   98.5     8    3.7   164     11.4    963     0.00     963    99999.0
 176   12:00  100.7     8    3.8   168     11.3    963     0.00    1010    99999.0
 176   13:00  103.7     7    3.6   152     12.3    962     0.00    1004    99999.0
 176   14:00  106.1     7    3.4   159     11.3    961     0.00     942    99999.0
 176   15:00  107.9     6    3.1   164     12.9    960     0.00     819    99999.0
 176   16:00  108.2     6    3.7   160     11.7    959     0.00     655    99999.0
 176   17:00  108.4     6    2.7   164     10.2    958     0.00     459    99999.0
 176   18:00  107.4     7    2.0   168      9.4    958     0.00     241    99999.0
 176   19:00  103.1     8    0.3   141      2.6    958     0.00      58    99999.0
 176   20:00   97.1     9    0.5   121      2.3    958     0.00       1    99999.0
 176   21:00   95.7     9    1.6   176     10.0    959     0.00       0    99999.0
 176   22:00   94.0    10    1.7   166      9.2    960     0.00       0    99999.0
 176   23:00   92.0    10    2.6   165      7.0    960     0.00       0    99999.0
 177    0:00   90.9    11    2.8   174     10.7    961     0.00       0    99999.0
 177    1:00   89.3    11    2.9   138     10.4    961     0.00       0    99999.0
 177    2:00   80.7    14    1.7    40      5.9    962     0.00       0    99999.0
 177    3:00   76.4    16    1.2    86      4.5    962     0.00       0    99999.0
 177    4:00   72.4    19    1.2    76      4.6    963     0.00       0    99999.0
 177    5:00   70.0    21    1.3    74      4.4    963     0.00       8    99999.0

Return to Shoshone, California graphs page.


Western Regional Climate Center,wrcc@dri.edu